Home > Products > Valid Products > MTR

000
SAUS46 KPDT 281558
MTRMEH
METAR KMEH 281556Z AUTO 00000KT 10SM CLR 24/09 A3018 RMK AO2 SLP186
T02440089





000
SAUS46 KPDT 281458
MTRMEH
METAR KMEH 281456Z AUTO 00000KT 10SM CLR 18/11 A3020 RMK AO2 SLP197
T01780111 53009





000
SAUS46 KPDT 281357
MTRMEH
METAR KMEH 281356Z AUTO 00000KT 10SM CLR 16/09 A3018 RMK AO2 SLP190
T01560094





000
SAUS46 KPDT 281257
MTRMEH
METAR KMEH 281256Z AUTO 00000KT 10SM FEW120 14/09 A3016 RMK AO2
SLP184 T01390089





000
SAUS46 KPDT 281158
MTRMEH
METAR KMEH 281156Z AUTO 00000KT 10SM CLR 13/08 A3017 RMK AO2 SLP187
T01330083 10183 20128 56003





000
SAUS46 KPDT 281058
MTRMEH
METAR KMEH 281056Z AUTO 00000KT 10SM CLR 13/08 A3017 RMK AO2 SLP187
T01330083





000
SAUS46 KPDT 280957
MTRMEH
METAR KMEH 280956Z AUTO 00000KT 10SM CLR 13/08 A3017 RMK AO2 SLP187
T01330083





000
SAUS46 KPDT 280857
MTRMEH
METAR KMEH 280856Z AUTO 00000KT 10SM CLR 13/08 A3018 RMK AO2 SLP190
T01330083 57004





000
SAUS46 KPDT 280757
MTRMEH
METAR KMEH 280756Z AUTO 00000KT 10SM CLR 14/08 A3019 RMK AO2 SLP192
T01440083 403110056





000
SAUS46 KPDT 280657
MTRMEH
METAR KMEH 280656Z AUTO 00000KT 10SM CLR 16/08 A3018 RMK AO2 SLP192
T01560083





000
SAUS46 KPDT 280558
MTRMEH
METAR KMEH 280556Z AUTO 00000KT 10SM CLR 18/08 A3019 RMK AO2 SLP192
T01830078 10300 20183 50008





000
SAUS46 KPDT 280457
MTRMEH
METAR KMEH 280456Z AUTO 00000KT 10SM CLR 20/08 A3019 RMK AO2 SLP193
T02000078





000
SAUS46 KPDT 280357
MTRMEH
METAR KMEH 280356Z AUTO 00000KT 10SM CLR 22/07 A3018 RMK AO2 SLP191
T02220067





000
SAUS46 KPDT 280257
MTRMEH
METAR KMEH 280256Z AUTO 00000KT 10SM CLR 25/06 A3017 RMK AO2 SLP190
T02500056 53004





000
SAUS46 KPDT 280157
MTRMEH
METAR KMEH 280156Z AUTO 00000KT 10SM CLR 27/06 A3015 RMK AO2 SLP189
T02720061





000
SAUS46 KPDT 280057
MTRMEH
METAR KMEH 280056Z AUTO 00000KT 10SM CLR 29/06 A3014 RMK AO2 SLP189
T02890056





000
SAUS46 KPDT 272358
MTRMEH
METAR KMEH 272356Z AUTO VRB05KT 10SM CLR 30/06 A3015 RMK AO2 SLP190
T03000061 10311 20267 56008





000
SAUS46 KPDT 272257
MTRMEH
METAR KMEH 272256Z AUTO VRB04KT 10SM CLR 30/07 A3016 RMK AO2 SLP192
T03000067





000
SAUS46 KPDT 272157
MTRMEH
METAR KMEH 272156Z AUTO 10SM CLR 31/06 A3017 RMK AO2 SLP190
T03110056





000
SAUS46 KPDT 272058
MTRMEH
METAR KMEH 272056Z AUTO VRB03KT 10SM CLR 30/06 A3018 RMK AO2 SLP195
T03000056 58007





000
SAUS46 KPDT 271957
MTRMEH
METAR KMEH 271956Z AUTO VRB03KT 10SM CLR 29/07 A3019 RMK AO2 SLP199
T02890072





000
SAUS46 KPDT 271903
MTRMEH
METAR KMEH 271856Z AUTO VRB04KT 10SM CLR 28/07 A3020 RMK AO2 SLP203
T02780067





000
SAUS46 KPDT 271757
MTRMEH
METAR KMEH 271756Z AUTO 00000KT 10SM CLR 27/07 A3020 RMK AO2 SLP203
T02720067 10272 20056 55005





000
SAUS46 KPDT 271657
MTRMEH
METAR KMEH 271656Z AUTO VRB03KT 10SM CLR 26/04 A3020 RMK AO2 SLP202
T02560044





000
SAUS46 KPDT 271557
MTRMEH
METAR KMEH 271556Z AUTO 00000KT 10SM CLR 22/08 A3021 RMK AO2 SLP207
T02220083





000
SAUS46 KPDT 271457
MTRMEH
METAR KMEH 271456Z AUTO 00000KT 10SM CLR 15/08 A3022 RMK AO2 SLP213
T01500083 53006





000
SAUS46 KPDT 271358
MTRMEH
METAR KMEH 271356Z AUTO 00000KT 10SM CLR 08/06 A3021 RMK AO2 SLP214
T00830056





000
SAUS46 KPDT 271258
MTRMEH
METAR KMEH 271256Z AUTO 00000KT 10SM CLR 06/04 A3020 RMK AO2 SLP212
T00560039





000
SAUS46 KPDT 271157
MTRMEH
METAR KMEH 271156Z AUTO 00000KT 10SM CLR 06/04 A3020 RMK AO2 SLP210
T00560044 10122 20056 53001





000
SAUS46 KPDT 271057
MTRMEH
METAR KMEH 271056Z AUTO 00000KT 10SM CLR 06/05 A3020 RMK AO2 SLP207
T00610050





000
SAUS46 KPDT 270958
MTRMEH
METAR KMEH 270956Z AUTO 00000KT 10SM CLR 07/06 A3020 RMK AO2 SLP206
T00720056





000
SAUS46 KPDT 270857
MTRMEH
METAR KMEH 270856Z AUTO 00000KT 10SM CLR 08/06 A3020 RMK AO2 SLP206
T00830061 58001





000
SAUS46 KPDT 270757
MTRMEH
METAR KMEH 270756Z AUTO 00000KT 10SM CLR 09/07 A3020 RMK AO2 SLP206
T00940067 402780022





000
SAUS46 KPDT 270657
MTRMEH
METAR KMEH 270656Z AUTO 00000KT 10SM CLR 11/07 A3020 RMK AO2 SLP206
T01060072





000
SAUS46 KPDT 270557
MTRMEH
METAR KMEH 270556Z AUTO 00000KT 10SM CLR 12/08 A3020 RMK AO2 SLP206
T01220078 10272 20122 51009





000
SAUS46 KPDT 270458
MTRMEH
METAR KMEH 270456Z AUTO 00000KT 10SM CLR 14/08 A3020 RMK AO2 SLP206
T01440083





000
SAUS46 KPDT 270357
MTRMEH
METAR KMEH 270356Z AUTO 00000KT 10SM CLR 17/07 A3019 RMK AO2 SLP201
T01720072





000
SAUS46 KPDT 270259
MTRMEH
METAR KMEH 270256Z AUTO 00000KT 10SM CLR 22/04 A3017 RMK AO2 SLP199
T02170044 53002





000
SAUS46 KPDT 270158
MTRMEH
METAR KMEH 270156Z AUTO VRB03KT 10SM CLR 25/03 A3017 RMK AO2 SLP201
T02500033





000
SAUS46 KPDT 270058
MTRMEH
METAR KMEH 270056Z AUTO VRB03KT 10SM CLR 27/04 A3016 RMK AO2 SLP202
T02670039





000
SAUS46 KPDT 262357
MTRMEH
METAR KMEH 262356Z AUTO VRB05KT 10SM CLR 27/04 A3017 RMK AO2 SLP201
T02720044 10278 20244 56004





000
SAUS46 KPDT 262257
MTRMEH
METAR KMEH 262256Z AUTO 10SM CLR 28/05 A3017 RMK AO2 SLP201
T02780050





000
SAUS46 KPDT 262158
MTRMEH
METAR KMEH 262156Z AUTO 02005KT 10SM CLR 27/04 A3018 RMK AO2 SLP202
T02720044





000
SAUS46 KPDT 262057
MTRMEH
METAR KMEH 262056Z AUTO VRB05KT 10SM CLR 27/05 A3018 RMK AO2 SLP203
T02720050 58005





000
SAUS46 KPDT 262002 COR
MTRMEH
METAR KMEH 261956Z AUTO VRB03KT 10SM CLR 27/04 A3018 RMK AO2 SLP203
T02670039





000
SAUS46 KPDT 261958 COR
MTRMEH
METAR KMEH 261956Z AUTO VRB03KT 10SM CLR 27/04 A3018 RMK AO2 SLP203
T02670039





000
SAUS46 KPDT 261858
MTRMEH
METAR KMEH 261856Z AUTO 00000KT 10SM CLR 26/03 A3020 RMK AO2 SLP206
T02610028





000
SAUS46 KPDT 261758
MTRMEH
METAR KMEH 261756Z AUTO 00000KT 10SM CLR 24/01 A3019 RMK AO2 SLP206
T02440011 10244 20022 51002





000
SAUS46 KPDT 261657
MTRMEH
METAR KMEH 261656Z AUTO VRB03KT 10SM CLR 22/04 A3019 RMK AO2 SLP207
T02220039





000
SAUS46 KPDT 261557
MTRMEH
METAR KMEH 261556Z AUTO 00000KT 10SM CLR 19/07 A3020 RMK AO2 SLP208
T01890072





000
SAUS46 KPDT 261457
MTRMEH
METAR KMEH 261456Z AUTO 00000KT 10SM CLR 13/07 A3019 RMK AO2 SLP208
T01280072 53008





000
SAUS46 KPDT 261357
MTRMEH
METAR KMEH 261356Z AUTO 00000KT 10SM CLR 06/04 A3018 RMK AO2 SLP209
T00610039





000
SAUS46 KPDT 261257
MTRMEH
METAR KMEH 261256Z AUTO 00000KT 10SM CLR 02/01 A3016 RMK AO2 SLP206
T00220011





000
SAUS46 KPDT 261157
MTRMEH
METAR KMEH 261156Z AUTO 00000KT 10SM CLR 03/02 A3016 RMK AO2 SLP204
T00280017 10089 20028 53006





000
SAUS46 KPDT 261058
MTRMEH
METAR KMEH 261056Z AUTO 00000KT 10SM CLR 03/02 A3015 RMK AO2 SLP200
T00330022





000
SAUS46 KPDT 260957
MTRMEH
METAR KMEH 260956Z AUTO 00000KT 10SM CLR 04/03 A3015 RMK AO2 SLP199
T00440033





000
SAUS46 KPDT 260858
MTRMEH
METAR KMEH 260856Z AUTO 00000KT 10SM CLR 05/04 A3014 RMK AO2 SLP196
T00500039 58002





000
SAUS46 KPDT 260758
MTRMEH
METAR KMEH 260756Z AUTO 00000KT 10SM CLR 06/04 A3015 RMK AO2 SLP197
T00610044 402330017





000
SAUS46 KPDT 260657
MTRMEH
METAR KMEH 260656Z AUTO 00000KT 10SM CLR 08/06 A3015 RMK AO2 SLP199
T00780056





000
SAUS46 KPDT 260557
MTRMEH
METAR KMEH 260556Z AUTO 00000KT 10SM CLR 09/07 A3014 RMK AO2 SLP196
T00940067 10233 20094 50008





000
SAUS46 KPDT 260457
MTRMEH
METAR KMEH 260456Z AUTO 00000KT 10SM CLR 11/07 A3015 RMK AO2 SLP197
T01110072





000
SAUS46 KPDT 260358
MTRMEH
METAR KMEH 260356Z AUTO 00000KT 10SM CLR 14/07 A3013 RMK AO2 SLP190
T01390072





000
SAUS46 KPDT 260257
MTRMEH
METAR KMEH 260256Z AUTO 00000KT 10SM CLR 17/06 A3012 RMK AO2 SLP187
T01720056 53001





000
SAUS46 KPDT 260157
MTRMEH
METAR KMEH 260156Z AUTO 00000KT 10SM CLR 21/02 A3011 RMK AO2 SLP187
T02110022





000
SAUS46 KPDT 260058
MTRMEH
METAR KMEH 260056Z AUTO 00000KT 10SM CLR 23/02 A3011 RMK AO2 SLP189
T02280022





000
SAUS46 KPDT 252358
MTRMEH
METAR KMEH 252356Z AUTO VRB04KT 10SM CLR 23/04 A3011 RMK AO2 SLP188
T02330039 10233 20178 56005





000
SAUS46 KPDT 252257
MTRMEH
METAR KMEH 252256Z AUTO VRB03KT 10SM CLR 23/07 A3011 RMK AO2 SLP188
T02330072





000
SAUS46 KPDT 252157
MTRMEH
METAR KMEH 252156Z AUTO VRB05KT 10SM CLR 22/07 A3012 RMK AO2 SLP191
T02220067





000
SAUS46 KPDT 252057
MTRMEH
METAR KMEH 252056Z AUTO VRB03KT 10SM CLR 21/04 A3013 RMK AO2 SLP194
T02110044 58005





000
SAUS46 KPDT 251958
MTRMEH
METAR KMEH 251956Z AUTO 00000KT 10SM CLR 21/04 A3014 RMK AO2 SLP193
T02110044





000
SAUS46 KPDT 251857
MTRMEH
METAR KMEH 251856Z AUTO VRB03KT 10SM CLR 20/06 A3014 RMK AO2 SLP197
T02000061





000
SAUS46 KPDT 251758
MTRMEH
METAR KMEH 251756Z AUTO VRB03KT 10SM CLR 18/07 A3015 RMK AO2 SLP199
T01780072 10183 20017 58002





000
SAUS46 KPDT 251657
MTRMEH
METAR KMEH 251656Z AUTO 00000KT 10SM CLR 17/07 A3015 RMK AO2 SLP200
T01670072





    US Dept of Commerce
    National Oceanic and Atmospheric Administration
    National Weather Service
    1325 East West Highway
    Silver Spring, MD 20910
    Page Author: NWS Internet Services Team
Disclaimer
Information Quality
Credits
Glossary
Privacy Policy
Freedom of Information Act (FOIA)
About Us
Career Opportunities